Haleyville, AL

11:29 PM CDT on September 01, 2015 (GMT -0500)
Haleyville | | Change Station
CLOSE
Current Station
Airport
Location: Haleyville,
Elevation: 932 ft
Nearby Weather Stations

Elev 932 ft 34.28 °N, 87.60 °W | Updated 33 minutes ago

Clear
Clear
69 °F
Feels Like 69 °F
N
0
Wind Variable Wind from North

Today
High -- | Low -- °F
--% Chance of Precip.
Yesterday
High -- | Low -- °F
Precip. -- in
6:23 AM 7:16 PM
Waning Gibbous, 83% visible
Pressure 30.17 in
Visibility 5.0 miles
Clouds Clear
Dew Point 69 °F
Humidity 100%
Rainfall 0.00 in
Snow Depth Not available.
UV 0 out of 12
Pollen 9.50 out of 12
Air Quality Not available.
Flu Activity Not available.
METAR K1M4 020356Z AUTO 00000KT 5SM BR CLR 21/21 A3014 RMK AO2 T02050205 SLP215
Pressure 30.17 in
Visibility 5.0 miles
Clouds Clear
Dew Point 69 °F
Humidity 100%
Rainfall 0.00 in
Snow Depth Not available.
UV 0 out of 12
Pollen 9.50 out of 12
Air Quality Not available.
Flu Activity Not available.
METAR K1M4 020356Z AUTO 00000KT 5SM BR CLR 21/21 A3014 RMK AO2 T02050205 SLP215

10-Day Weather Forecast

×

Almanac

Astronomy

Sep. 01, 2015 Rise Set
Actual Time
Civil Twilight
Nautical Twilight
Astronomical Twilight
Moon
Length of Visible Light
Length of Day
Tomorrow will be .
, % of the Moon is Illuminated

Today's Extremes

State Highs State Lows

Community

WunderPhotos

Upload Photos

1,851,695 photos uploaded!

WunderBlogs® & News

Nearby

Air Quality

  Air Quality AQ Index Pollutant
Not available.

Snow Depth

Station Depth Elevation

Earthquake Activity

City Distance Mag. Time & Date
Minimum magnitude displayed is 2.5.

Coastal Water Temperatures

Place Temperature

Stations

Nearby Weather Stations

Station Location Temp. Windchill Dew Point Humidity Wind Precip. Elev Updated Type